createdAt,value
2018-01-02T00:02:26.796Z,13.07
2018-01-02T00:04:55.018Z,19.70
2018-01-02T00:07:22.479Z,23.27
2018-01-02T00:09:49.945Z,16.73
2018-01-02T00:12:17.420Z,19.47
2018-01-02T00:14:44.874Z,19.00
2018-01-02T00:17:12.348Z,11.43
2018-01-02T00:19:40.581Z,17.30
2018-01-02T00:22:08.055Z,10.70
2018-01-02T00:24:35.552Z,14.53
2018-01-02T00:27:03.778Z,9.13
2018-01-02T00:29:31.247Z,20.97
2018-01-02T00:31:58.706Z,22.10
2018-01-02T00:34:26.174Z,15.03
2018-01-02T00:36:53.631Z,11.90
2018-01-02T00:39:21.110Z,24.70
2018-01-02T00:41:49.334Z,12.50
2018-01-02T00:44:16.793Z,22.27
2018-01-02T00:46:44.267Z,20.03
2018-01-02T00:49:11.735Z,13.27
2018-01-02T00:51:39.195Z,15.70
2018-01-02T00:54:07.421Z,11.90
2018-01-02T00:56:34.895Z,20.93
2018-01-02T00:59:02.342Z,14.67
2018-01-02T01:01:29.808Z,28.03
2018-01-02T01:03:57.271Z,17.87
2018-01-02T01:06:24.742Z,13.70
2018-01-02T01:08:52.206Z,13.13
2018-01-02T01:11:19.714Z,9.17
2018-01-02T01:13:47.174Z,17.27
2018-01-02T01:16:14.630Z,7.03
2018-01-02T01:18:42.095Z,24.10
2018-01-02T01:21:09.554Z,16.67
2018-01-02T01:23:37.018Z,10.50
2018-01-02T01:26:04.484Z,19.13
2018-01-02T01:28:31.934Z,8.00
2018-01-02T01:30:59.401Z,10.53
2018-01-02T01:33:26.917Z,14.13
2018-01-02T01:35:54.382Z,13.77
2018-01-02T01:38:21.849Z,12.47
2018-01-02T01:40:49.316Z,21.60
2018-01-02T01:43:16.841Z,9.13
2018-01-02T01:45:44.309Z,11.10
2018-01-02T01:48:11.779Z,24.33
2018-01-02T01:50:39.237Z,9.20
2018-01-02T01:53:06.702Z,9.60
2018-01-02T01:55:34.158Z,11.80
2018-01-02T01:58:01.622Z,15.70
2018-01-02T02:00:29.069Z,14.30
2018-01-02T02:02:56.555Z,15.27
2018-01-02T02:05:24.025Z,17.27
2018-01-02T02:07:52.245Z,18.17
2018-01-02T02:10:19.791Z,12.60
2018-01-02T02:12:47.249Z,12.03
2018-01-02T02:15:14.710Z,10.73
2018-01-02T02:17:42.182Z,10.20
2018-01-02T02:20:10.466Z,12.00
2018-01-02T02:22:37.934Z,6.93
2018-01-02T02:25:05.400Z,11.20
2018-01-02T02:27:32.880Z,17.80
2018-01-02T02:30:00.371Z,17.07
2018-01-02T02:32:27.831Z,18.47
2018-01-02T02:34:56.065Z,7.30
2018-01-02T02:37:24.290Z,7.03
2018-01-02T02:39:51.782Z,14.80
2018-01-02T02:42:19.237Z,9.43
2018-01-02T02:44:46.727Z,18.53
2018-01-02T02:47:14.942Z,8.97
2018-01-02T02:49:42.439Z,9.70
2018-01-02T02:52:09.858Z,12.37
2018-01-02T02:54:37.317Z,8.27
2018-01-02T02:57:04.775Z,8.57
2018-01-02T02:59:32.241Z,13.37
2018-01-02T03:01:59.701Z,14.03
2018-01-02T03:04:27.935Z,11.60
2018-01-02T03:06:56.144Z,9.83
2018-01-02T03:09:23.617Z,22.93
2018-01-02T03:11:51.094Z,8.23
2018-01-02T03:14:19.323Z,8.57
2018-01-02T03:16:46.855Z,15.67
2018-01-02T03:19:14.327Z,5.73
2018-01-02T03:21:41.808Z,16.67
2018-01-02T03:24:09.295Z,7.17
2018-01-02T03:26:37.526Z,10.07
2018-01-02T03:29:05.015Z,10.17
2018-01-02T03:31:33.264Z,12.90
2018-01-02T03:34:00.713Z,7.83
2018-01-02T03:36:28.185Z,16.73
2018-01-02T03:38:55.653Z,15.93
2018-01-02T03:41:23.117Z,9.83
2018-01-02T03:43:51.360Z,8.20
2018-01-02T03:46:18.817Z,10.30
2018-01-02T03:48:46.282Z,7.63
2018-01-02T03:51:13.739Z,10.23
2018-01-02T03:53:41.198Z,14.33
2018-01-02T03:56:08.657Z,8.00
2018-01-02T03:58:36.118Z,6.30
2018-01-02T04:01:03.582Z,18.90
2018-01-02T04:03:31.907Z,5.30
2018-01-02T04:05:59.367Z,4.27
2018-01-02T04:08:26.830Z,8.43
2018-01-02T04:10:54.289Z,16.93
2018-01-02T04:13:21.762Z,12.00
2018-01-02T04:15:49.219Z,11.07
2018-01-02T04:18:16.686Z,13.13
2018-01-02T04:20:44.151Z,14.97
2018-01-02T04:23:11.609Z,13.97
2018-01-02T04:25:39.069Z,20.97
2018-01-02T04:28:06.525Z,13.30
2018-01-02T04:30:34.058Z,20.40
2018-01-02T04:33:01.522Z,17.17
2018-01-02T04:35:28.986Z,22.83
2018-01-02T04:37:56.450Z,11.97
2018-01-02T04:40:23.906Z,22.40
2018-01-02T04:42:51.369Z,13.23
2018-01-02T04:45:18.838Z,18.63
2018-01-02T04:47:47.065Z,19.10
2018-01-02T04:50:14.532Z,19.43
2018-01-02T04:52:41.986Z,18.17
2018-01-02T04:55:09.478Z,19.30
2018-01-02T04:57:37.719Z,14.83
2018-01-02T05:00:05.180Z,28.30
2018-01-02T05:02:32.651Z,22.73
2018-01-02T05:05:00.238Z,27.23
2018-01-02T05:07:28.482Z,19.60
2018-01-02T05:09:55.939Z,28.10
2018-01-02T05:12:23.410Z,16.80
2018-01-02T05:14:50.866Z,13.47
2018-01-02T05:17:18.334Z,18.10
2018-01-02T05:19:46.558Z,29.90
2018-01-02T05:22:14.006Z,14.03
2018-01-02T05:24:41.469Z,8.50
2018-01-02T05:27:08.938Z,24.13
2018-01-02T05:29:36.410Z,17.70
2018-01-02T05:32:03.878Z,26.13
2018-01-02T05:34:31.330Z,12.87
2018-01-02T05:36:58.804Z,21.67
2018-01-02T05:39:26.315Z,27.53
2018-01-02T05:41:53.797Z,20.90
2018-01-02T05:44:21.278Z,19.70
2018-01-02T05:46:49.510Z,21.60
2018-01-02T05:49:16.976Z,17.73
2018-01-02T05:51:44.474Z,9.80
2018-01-02T05:54:12.690Z,20.57
2018-01-02T05:56:40.154Z,11.00
2018-01-02T05:59:07.616Z,8.63
2018-01-02T06:01:35.070Z,6.27
2018-01-02T06:04:02.548Z,9.87
2018-01-02T06:06:30.016Z,9.63
2018-01-02T06:08:57.467Z,16.60
2018-01-02T06:11:24.922Z,12.30
2018-01-02T06:13:52.389Z,17.13
2018-01-02T06:16:19.847Z,7.10
2018-01-02T06:18:48.090Z,14.70
2018-01-02T06:21:15.554Z,15.47
2018-01-02T06:23:43.021Z,7.23
2018-01-02T06:26:10.486Z,13.10
2018-01-02T06:28:38.714Z,18.30
2018-01-02T06:31:06.190Z,11.00
2018-01-02T06:33:33.716Z,8.83
2018-01-02T06:36:01.162Z,8.70
2018-01-02T06:38:28.633Z,13.73
2018-01-02T06:40:56.163Z,9.23
2018-01-02T06:43:24.382Z,8.50
2018-01-02T06:45:51.830Z,7.73
2018-01-02T06:48:19.453Z,10.13
2018-01-02T06:50:47.705Z,9.60
2018-01-02T06:53:15.159Z,11.37
2018-01-02T06:55:42.670Z,12.27
2018-01-02T06:58:10.134Z,14.73
2018-01-02T07:00:37.670Z,5.40
2018-01-02T07:03:05.127Z,10.13
2018-01-02T07:05:32.578Z,9.20
2018-01-02T07:08:00.057Z,12.50
2018-01-02T07:10:27.515Z,8.60
2018-01-02T07:12:54.965Z,7.23
2018-01-02T07:15:22.437Z,12.43
2018-01-02T07:17:49.883Z,6.53
2018-01-02T07:20:17.330Z,4.47
2018-01-02T07:22:44.804Z,10.20
2018-01-02T07:25:12.254Z,8.00
2018-01-02T07:27:39.710Z,7.33
2018-01-02T07:30:07.175Z,14.17
2018-01-02T07:32:34.655Z,5.40
2018-01-02T07:35:02.131Z,5.93
2018-01-02T07:37:29.604Z,11.63
2018-01-02T07:39:57.866Z,7.63
2018-01-02T07:42:25.322Z,5.77
2018-01-02T07:44:52.787Z,8.00
2018-01-02T07:47:21.009Z,6.33
2018-01-02T07:49:48.472Z,7.50
2018-01-02T07:52:15.989Z,8.37
2018-01-02T07:54:43.459Z,16.87
2018-01-02T07:57:10.918Z,12.17
2018-01-02T07:59:38.387Z,19.37
2018-01-02T08:02:05.855Z,6.13
2018-01-02T08:04:33.323Z,15.10
2018-01-02T08:07:00.853Z,13.70
2018-01-02T08:09:28.323Z,10.83
2018-01-02T08:11:55.790Z,8.40
2018-01-02T08:14:23.241Z,12.33
2018-01-02T08:16:50.746Z,8.87
2018-01-02T08:19:19.009Z,10.83
2018-01-02T08:21:46.503Z,11.90
2018-01-02T08:24:13.965Z,10.83
2018-01-02T08:26:41.432Z,5.70
2018-01-02T08:29:08.902Z,17.30
2018-01-02T08:31:36.376Z,13.03
2018-01-02T08:34:03.830Z,15.57
2018-01-02T08:36:31.326Z,13.40
2018-01-02T08:38:59.554Z,9.40
2018-01-02T08:41:27.798Z,14.33
2018-01-02T08:43:56.035Z,13.53
2018-01-02T08:46:23.503Z,11.47
2018-01-02T08:48:51.739Z,17.97
2018-01-02T08:51:19.202Z,15.20
2018-01-02T08:53:46.662Z,8.13
2018-01-02T08:56:14.153Z,11.23
2018-01-02T08:58:42.441Z,7.93
2018-01-02T09:01:09.916Z,22.10
2018-01-02T09:03:37.369Z,18.17
2018-01-02T09:06:04.836Z,9.87
2018-01-02T09:08:32.295Z,12.43
2018-01-02T09:10:59.776Z,11.23
2018-01-02T09:13:32.786Z,20.57
2018-01-02T09:16:01.013Z,17.23
2018-01-02T09:18:28.507Z,13.67
2018-01-02T09:20:55.959Z,19.40
2018-01-02T09:23:23.437Z,11.50
2018-01-02T09:25:50.878Z,21.43
2018-01-02T09:28:18.331Z,15.30
2018-01-02T09:30:45.794Z,11.20
2018-01-02T09:33:13.244Z,18.13
2018-01-02T09:35:40.706Z,11.93
2018-01-02T09:38:08.174Z,11.40
2018-01-02T09:40:36.390Z,13.40
2018-01-02T09:43:03.847Z,11.03
2018-01-02T09:45:31.315Z,15.00
2018-01-02T09:47:58.771Z,19.63
2018-01-02T09:50:26.222Z,22.50
2018-01-02T09:52:53.686Z,17.10
2018-01-02T09:55:21.137Z,10.80
2018-01-02T09:57:48.599Z,6.63
2018-01-02T10:00:16.056Z,11.60
2018-01-02T10:02:43.502Z,11.90
2018-01-02T10:05:10.973Z,12.53
2018-01-02T10:07:38.439Z,8.63
2018-01-02T10:10:05.891Z,15.87
2018-01-02T10:12:33.366Z,11.00
2018-01-02T10:15:00.881Z,17.37
2018-01-02T10:17:28.343Z,16.03
2018-01-02T10:19:55.811Z,7.80
2018-01-02T10:22:23.258Z,10.97
2018-01-02T10:24:50.727Z,12.00
2018-01-02T10:27:18.185Z,12.53
2018-01-02T10:29:45.646Z,9.80
2018-01-02T10:32:13.109Z,20.53
2018-01-02T10:34:40.583Z,14.17
2018-01-02T10:37:08.046Z,15.27
2018-01-02T10:39:35.510Z,13.97
2018-01-02T10:42:03.753Z,10.00
2018-01-02T10:44:31.227Z,13.40
2018-01-02T10:46:58.679Z,10.20
2018-01-02T10:49:26.135Z,10.93
2018-01-02T10:51:53.626Z,9.70
2018-01-02T10:54:21.842Z,14.47
2018-01-02T10:56:49.307Z,13.43
2018-01-02T10:59:16.775Z,13.80
2018-01-02T11:01:44.223Z,5.10
2018-01-02T11:04:11.713Z,10.50
2018-01-02T11:06:39.159Z,10.00
2018-01-02T11:09:06.615Z,10.47
2018-01-02T11:11:34.081Z,10.57
2018-01-02T11:14:02.307Z,16.63
2018-01-02T11:16:29.762Z,13.40
2018-01-02T11:18:57.262Z,18.60
2018-01-02T11:21:24.699Z,14.57
2018-01-02T11:23:52.153Z,16.60
2018-01-02T11:26:19.631Z,17.13
2018-01-02T11:28:47.086Z,20.70
2018-01-02T11:31:14.529Z,13.67
2018-01-02T11:33:41.993Z,14.17
2018-01-02T11:36:09.454Z,19.73
2018-01-02T11:38:36.903Z,18.20
2018-01-02T11:41:04.395Z,28.17
2018-01-02T11:43:31.845Z,23.43
2018-01-02T11:46:00.059Z,17.27
2018-01-02T11:48:27.521Z,26.53
2018-01-02T11:50:55.031Z,22.73
2018-01-02T11:53:23.242Z,23.03
2018-01-02T11:55:50.731Z,13.93
2018-01-02T11:58:18.191Z,24.13
2018-01-02T12:00:45.658Z,23.07
2018-01-02T12:03:13.119Z,21.33
2018-01-02T12:05:41.367Z,21.13
2018-01-02T12:08:08.830Z,22.30
2018-01-02T12:10:36.299Z,20.30
2018-01-02T12:13:03.756Z,22.30
2018-01-02T12:15:31.222Z,15.47
2018-01-02T12:17:58.725Z,19.43
2018-01-02T12:20:26.162Z,27.13
2018-01-02T12:22:53.622Z,22.43
2018-01-02T12:25:21.087Z,17.33
2018-01-02T12:27:48.540Z,25.27
2018-01-02T12:30:16.007Z,28.50
2018-01-02T12:32:43.462Z,21.57
2018-01-02T12:35:10.922Z,28.43
2018-01-02T12:37:38.394Z,34.80
2018-01-02T12:40:06.638Z,19.07
2018-01-02T12:42:34.085Z,29.87
2018-01-02T12:45:01.535Z,25.77
2018-01-02T12:47:29.779Z,33.20
2018-01-02T12:49:57.242Z,49.83
2018-01-02T12:52:25.460Z,33.27
2018-01-02T12:54:52.931Z,24.23
2018-01-02T12:57:20.387Z,15.97
2018-01-02T12:59:47.862Z,28.10
2018-01-02T13:02:15.322Z,25.27
2018-01-02T13:04:42.778Z,23.03
2018-01-02T13:07:10.242Z,28.63
2018-01-02T13:09:37.713Z,35.57
2018-01-02T13:12:05.166Z,30.03
2018-01-02T13:14:32.634Z,21.13
2018-01-02T13:17:00.095Z,14.40
2018-01-02T13:19:27.550Z,22.80
2018-01-02T13:21:55.027Z,26.33
2018-01-02T13:24:23.251Z,21.90
2018-01-02T13:26:50.726Z,22.03
2018-01-02T13:29:18.182Z,24.83
2018-01-02T13:31:45.667Z,24.83
2018-01-02T13:34:13.927Z,22.23
2018-01-02T13:36:41.369Z,24.87
2018-01-02T13:39:08.842Z,27.77
2018-01-02T13:41:36.294Z,21.00
2018-01-02T13:44:03.746Z,33.93
2018-01-02T13:46:31.206Z,24.47
2018-01-02T13:48:58.672Z,24.33
2018-01-02T13:51:26.897Z,18.03
2018-01-02T13:53:54.367Z,37.93
2018-01-02T13:56:21.831Z,15.33
2018-01-02T13:58:49.300Z,27.07
2018-01-02T14:01:16.771Z,22.57
2018-01-02T14:03:44.998Z,21.00
2018-01-02T14:06:12.478Z,23.33
2018-01-02T14:08:39.948Z,29.03
2018-01-02T14:11:07.386Z,24.90
2018-01-02T14:13:34.854Z,23.50
2018-01-02T14:16:02.322Z,12.80
2018-01-02T14:18:29.770Z,17.30
2018-01-02T14:20:57.242Z,19.77
2018-01-02T14:23:24.707Z,21.40
2018-01-02T14:25:52.922Z,17.23
2018-01-02T14:28:20.410Z,23.17
2018-01-02T14:30:47.892Z,26.70
2018-01-02T14:33:16.110Z,17.93
2018-01-02T14:35:43.566Z,18.10
2018-01-02T14:38:11.022Z,20.77
2018-01-02T14:40:38.482Z,29.83
2018-01-02T14:43:05.947Z,16.80
2018-01-02T14:45:33.411Z,17.93
2018-01-02T14:48:00.861Z,18.60
2018-01-02T14:50:28.325Z,29.33
2018-01-02T14:52:55.803Z,30.93
2018-01-02T14:55:23.257Z,35.33
2018-01-02T14:57:50.718Z,35.33
2018-01-02T15:00:18.183Z,33.23
2018-01-02T15:02:45.634Z,28.43
2018-01-02T15:05:13.095Z,18.33
2018-01-02T15:07:40.580Z,31.53
2018-01-02T15:10:08.040Z,21.50
2018-01-02T15:12:35.482Z,30.70
2018-01-02T15:15:03.764Z,29.03
2018-01-02T15:17:31.977Z,32.83
2018-01-02T15:19:59.443Z,29.33
2018-01-02T15:22:26.916Z,28.17
2018-01-02T15:24:54.382Z,29.43
2018-01-02T15:27:21.847Z,34.80
2018-01-02T15:29:50.086Z,16.47
2018-01-02T15:32:17.569Z,24.30
2018-01-02T15:34:45.022Z,17.27
2018-01-02T15:37:12.479Z,23.37
2018-01-02T15:39:39.942Z,23.43
2018-01-02T15:42:07.403Z,25.93
2018-01-02T15:44:34.859Z,34.83
2018-01-02T15:47:03.082Z,20.77
2018-01-02T15:49:30.575Z,26.27
2018-01-02T15:51:58.048Z,28.60
2018-01-02T15:54:25.489Z,25.10
2018-01-02T15:56:52.958Z,19.53
2018-01-02T15:59:20.428Z,28.77
2018-01-02T16:01:48.647Z,30.93
2018-01-02T16:04:16.118Z,22.67
2018-01-02T16:06:43.575Z,27.77
2018-01-02T16:09:11.031Z,14.87
2018-01-02T16:11:38.501Z,24.07
2018-01-02T16:14:05.950Z,16.93
2018-01-02T16:16:33.409Z,21.23
2018-01-02T16:19:00.875Z,25.50
2018-01-02T16:21:28.337Z,24.43
2018-01-02T16:23:55.794Z,30.47
2018-01-02T16:26:23.251Z,29.87
2018-01-02T16:28:50.702Z,26.67
2018-01-02T16:31:18.166Z,33.23
2018-01-02T16:33:45.631Z,22.67
2018-01-02T16:36:13.092Z,30.43
2018-01-02T16:38:41.342Z,32.30
2018-01-02T16:41:08.802Z,25.10
2018-01-02T16:43:36.259Z,36.10
2018-01-02T16:46:03.724Z,24.90
2018-01-02T16:48:31.179Z,18.17
2018-01-02T16:50:58.636Z,26.60
2018-01-02T16:53:26.103Z,25.30
2018-01-02T16:55:53.579Z,25.37
2018-01-02T16:58:21.798Z,26.70
2018-01-02T17:00:49.257Z,27.20
2018-01-02T17:03:16.711Z,26.03
2018-01-02T17:05:44.172Z,25.80
2018-01-02T17:08:11.635Z,21.47
2018-01-02T17:10:39.094Z,28.87
2018-01-02T17:13:06.612Z,25.20
2018-01-02T17:15:34.077Z,23.13
2018-01-02T17:18:01.530Z,30.00
2018-01-02T17:20:28.990Z,24.00
2018-01-02T17:22:56.459Z,20.47
2018-01-02T17:25:23.927Z,18.00
2018-01-02T17:27:51.387Z,13.20
2018-01-02T17:30:18.849Z,15.87
2018-01-02T17:35:20.077Z,21.20
2018-01-02T17:37:47.531Z,10.37
2018-01-02T17:40:15.018Z,17.03
2018-01-02T17:42:42.482Z,15.80
2018-01-02T17:45:09.969Z,24.17
2018-01-02T17:47:38.188Z,18.93
2018-01-02T17:50:05.685Z,15.53
2018-01-02T17:52:33.166Z,15.90
2018-01-02T17:55:01.388Z,15.40
2018-01-02T17:57:28.858Z,25.77
2018-01-02T17:59:56.322Z,22.47
2018-01-02T18:02:23.783Z,27.07
2018-01-02T18:04:51.254Z,25.33
2018-01-02T18:07:19.470Z,16.60
2018-01-02T18:09:46.922Z,12.83
2018-01-02T18:12:14.393Z,19.53
2018-01-02T18:14:41.844Z,22.50
2018-01-02T18:17:09.294Z,17.80
2018-01-02T18:19:36.767Z,24.57
2018-01-02T18:22:04.276Z,17.73
2018-01-02T18:24:31.674Z,24.13
2018-01-02T18:26:59.142Z,17.83
2018-01-02T18:29:27.363Z,12.87
2018-01-02T18:31:55.582Z,17.43
2018-01-02T18:34:23.062Z,23.37
2018-01-02T18:36:50.580Z,18.67
2018-01-02T18:39:18.018Z,20.93
2018-01-02T18:41:45.492Z,18.97
2018-01-02T18:44:12.938Z,15.00
2018-01-02T18:46:40.388Z,20.47
2018-01-02T18:49:07.845Z,18.63
2018-01-02T18:51:35.306Z,10.97
2018-01-02T18:54:02.767Z,20.10
2018-01-02T18:56:30.234Z,7.80
2018-01-02T18:58:57.690Z,13.63
2018-01-02T19:01:25.153Z,18.40
2018-01-02T19:03:52.622Z,19.17
2018-01-02T19:06:20.094Z,13.60
2018-01-02T19:08:47.557Z,13.50
2018-01-02T19:11:15.016Z,9.03
2018-01-02T19:13:42.475Z,14.93
2018-01-02T19:16:09.929Z,10.97
2018-01-02T19:18:37.382Z,11.10
2018-01-02T19:21:05.014Z,14.10
2018-01-02T19:23:32.467Z,13.87
2018-01-02T19:25:59.919Z,9.17
2018-01-02T19:28:27.377Z,6.10
2018-01-02T19:30:54.836Z,8.70
2018-01-02T19:33:22.287Z,8.13
2018-01-02T19:35:49.754Z,9.17
2018-01-02T19:38:17.208Z,11.33
2018-01-02T19:40:44.664Z,14.10
2018-01-02T19:43:12.117Z,12.07
2018-01-02T19:45:39.594Z,17.03
2018-01-02T19:48:07.046Z,17.53
2018-01-02T19:50:34.510Z,18.57
2018-01-02T19:53:01.982Z,20.67
2018-01-02T19:55:29.457Z,19.87
2018-01-02T19:57:56.920Z,14.60
2018-01-02T20:00:25.143Z,21.33
2018-01-02T20:02:52.631Z,17.37
2018-01-02T20:05:20.090Z,24.27
2018-01-02T20:07:47.546Z,20.50
2018-01-02T20:10:15.014Z,25.63
2018-01-02T20:12:42.467Z,23.87
2018-01-02T20:15:09.930Z,24.70
2018-01-02T20:17:38.174Z,24.17
2018-01-02T20:20:05.638Z,26.00
2018-01-02T20:22:33.119Z,24.53
2018-01-02T20:25:00.673Z,23.77
2018-01-02T20:27:28.915Z,23.67
2018-01-02T20:29:56.382Z,24.50
2018-01-02T20:32:23.855Z,30.40
2018-01-02T20:34:51.339Z,27.83
2018-01-02T20:37:18.803Z,26.27
2018-01-02T20:39:46.294Z,28.93
2018-01-02T20:42:13.753Z,32.97
2018-01-02T20:44:41.226Z,30.30
2018-01-02T20:47:08.685Z,40.10
2018-01-02T20:49:36.150Z,40.63
2018-01-02T20:52:03.619Z,35.80
2018-01-02T20:54:31.860Z,29.90
2018-01-02T20:56:59.323Z,32.93
2018-01-02T20:59:26.794Z,32.03
2018-01-02T21:01:54.260Z,44.00
2018-01-02T21:04:21.718Z,46.57
2018-01-02T21:06:49.954Z,38.87
2018-01-02T21:09:17.418Z,39.13
2018-01-02T21:11:45.013Z,41.83
2018-01-02T21:14:13.258Z,53.50
2018-01-02T21:16:40.735Z,43.80
2018-01-02T21:19:08.197Z,43.63
2018-01-02T21:21:36.478Z,36.60
2018-01-02T21:24:03.918Z,44.87
2018-01-02T21:26:31.383Z,50.80
2018-01-02T21:28:58.838Z,47.23
2018-01-02T21:31:26.310Z,37.20
2018-01-02T21:33:54.559Z,48.53
2018-01-02T21:36:22.086Z,36.83
2018-01-02T21:38:50.483Z,53.80
2018-01-02T21:41:17.975Z,59.60
2018-01-02T21:43:46.206Z,60.87
2018-01-02T21:46:13.844Z,48.03
2018-01-02T21:48:41.314Z,41.43
2018-01-02T21:51:08.790Z,54.37
2018-01-02T21:53:36.250Z,56.23
2018-01-02T21:56:03.714Z,48.33
2018-01-02T21:58:31.187Z,43.30
2018-01-02T22:00:59.419Z,58.57
2018-01-02T22:03:26.877Z,41.50
2018-01-02T22:05:54.342Z,41.87
2018-01-02T22:08:21.817Z,50.70
2018-01-02T22:10:49.286Z,57.17
2018-01-02T22:13:16.759Z,51.80
2018-01-02T22:15:44.994Z,49.57
2018-01-02T22:18:12.462Z,45.70
2018-01-02T22:20:39.927Z,63.63
2018-01-02T22:23:07.432Z,50.87
2018-01-02T22:25:34.901Z,53.33
2018-01-02T22:28:02.447Z,49.50
2018-01-02T22:30:29.899Z,43.30
2018-01-02T22:32:57.366Z,49.03
2018-01-02T22:35:24.831Z,48.97
2018-01-02T22:37:52.281Z,54.83
2018-01-02T22:40:20.514Z,45.90
2018-01-02T22:42:48.757Z,47.03
2018-01-02T22:45:16.226Z,43.20
2018-01-02T22:47:43.689Z,43.23
2018-01-02T22:50:11.154Z,47.90
2018-01-02T22:52:39.390Z,42.90
2018-01-02T22:55:06.866Z,39.50
2018-01-02T22:57:34.350Z,36.23
2018-01-02T23:00:01.826Z,34.37
2018-01-02T23:02:29.306Z,43.67
2018-01-02T23:04:56.757Z,39.50
2018-01-02T23:07:24.225Z,40.63
2018-01-02T23:09:51.690Z,44.27
2018-01-02T23:12:19.159Z,49.23
2018-01-02T23:14:46.627Z,57.67
2018-01-02T23:17:14.090Z,39.57
2018-01-02T23:19:41.554Z,44.17
2018-01-02T23:22:09.031Z,40.97
2018-01-02T23:24:36.497Z,38.17
2018-01-02T23:27:03.966Z,34.87
2018-01-02T23:29:31.451Z,37.13
2018-01-02T23:31:58.914Z,37.20
2018-01-02T23:34:26.373Z,32.83
2018-01-02T23:36:53.931Z,38.00
2018-01-02T23:39:21.402Z,42.37
2018-01-02T23:41:48.873Z,40.67
2018-01-02T23:44:17.113Z,47.03
2018-01-02T23:46:44.582Z,56.00
2018-01-02T23:49:12.047Z,42.53
2018-01-02T23:51:40.275Z,44.00
2018-01-02T23:54:07.741Z,43.03
2018-01-02T23:56:35.210Z,38.67
2018-01-02T23:59:02.677Z,56.33
